Dog Valley, California Weather observations

Data are for 10 minute period ending at time listed.
 Day   Time    Ave.   Ave.  Ave.  Vector   Max.   Total    Solar   
  of    of     Air    Rel.  Wind   Wind    Wind  Precip.   Rad.    
Year   Day     Temp.  Hum.  Speed  Dir.    Gust                    
2014   (PST)    F      %     mph   deg.    mph     in.     W/m2    
------------------------------------------------------------------- 
 109   21:00   46.0    21    2.0   351     15.0    0.11       0  
 109   22:00   40.0    27    2.0   258      7.0    0.11       0  
 109   23:00   34.0    32    2.0   143      4.0    0.11       0  
 110    0:00   32.0    30    1.0   261      4.0    0.11       0  
 110    1:00   32.0    33    1.0   288      5.0    0.11       0  
 110    2:00   31.0    40    2.0   275      4.0    0.11       0  
 110    3:00   28.0    46    2.0    19      5.0    0.11       0  
 110    4:00   27.0    51    1.0    35      5.0    0.11       0  
 110    5:00   26.0    56    1.0   322      4.0    0.11       0  
 110    6:00   25.0    59    0.0    60      2.0    0.11       5  
 110    7:00   31.0    55    1.0    64      3.0    0.11      64  
 110    8:00   45.0    38    2.0    98      4.0    0.11      99  
 110    9:00   57.0    30    3.0   349      8.0    0.11     477  
 110   10:00   60.0    27    3.0   157      9.0    0.11     841  
 110   11:00   62.0    23    3.0   136      9.0    0.11     937  
 110   12:00   66.0    16    3.0    53      9.0    0.11    1060  
 110   13:00   70.0    14    3.0   277      9.0    0.11    1087  
 110   14:00   72.0    12    2.0    84      8.0    0.11    1027  
 110   15:00   70.0    14    2.0    58     11.0    0.11     831  
 110   16:00   66.0    15    2.0    11      7.0    0.11     269  
 110   17:00   66.0    14    2.0   125      7.0    0.11     377  
 110   18:00   62.0    18    2.0   330      7.0    0.11     105  
 110   19:00   52.0    30    1.0   282     11.0    0.11      21  
 110   20:00   42.0    42    1.0   289      4.0    0.11       0  

Return to Dog Valley, California graphs page.


Western Regional Climate Center,wrcc@dri.edu